Lemon Creek (Juneau) AK US current weather conditions

sailwx.info

Wind from 166 at 4 knots gusting 5

Air temperature 17.2° C
Dewpoint 3.3° C

Last reported at 2020-May-29 02:38 UTC.
Time now 2020-May-29 03:52 UTC

Location: N 58°21' W 134°30'.
View on Google Maps.

See reports from other nearby stations

  
Tides and Currents Weather Stations Pressure Air Temp Water Temp Dewpoint Dewpoint Depression Visibility Wind Speed Wind Dir Waves Ship Positions
date/time (UTC)wind fromknots sea level pressurealtimeterstation pressurevisibilityair tempwater tempwave heightnotes
2020-May-29 02:38 166 4 gusting 5 17.2
2020-May-29 02:18 187 6 gusting 7 17.8
2020-May-29 01:58 217 6 gusting 6 17.2
2020-May-29 01:38 195 4 gusting 4 17.2
2020-May-29 01:18 217 6 gusting 6 18.3
2020-May-29 00:58 242 1 gusting 1 18.3
2020-May-29 00:38 301 0 gusting 1 18.3
2020-May-29 00:18 336 1 gusting 2 18.3
2020-May-28 23:58 241 1 gusting 1 18.3
2020-May-28 23:38 313 0 gusting 3 17.8
2020-May-28 23:18 267 1 gusting 3 17.2
2020-May-28 22:58 250 1 gusting 2 18.3
2020-May-28 22:38 246 0 gusting 2 18.3
2020-May-28 22:18 249 2 gusting 2 18.3
2020-May-28 21:58 278 1 gusting 2 17.8
2020-May-28 21:38 119 0 gusting 0 17.2
2020-May-28 21:18 216 0 gusting 3 15.6
2020-May-28 20:58 222 3 gusting 3 14.4
2020-May-28 20:38 216 1 gusting 4 14.4
2020-May-28 20:18 14.4
2020-May-28 19:58 117 1 gusting 6 13.3
2020-May-28 19:38 13.3
2020-May-28 19:18 192 3 gusting 4 13.3
2020-May-28 18:58 212 3 gusting 4 13.9
2020-May-28 18:38 13.9
2020-May-28 18:18 238 0 gusting 1 13.3
2020-May-28 17:58 231 0 gusting 1 13.9
2020-May-28 17:38 336 0 gusting 0 13.9
2020-May-28 17:18 12.8
2020-May-28 16:58 12.2
2020-May-28 16:38 11.7
2020-May-28 16:18 11.1
2020-May-28 15:58 11.1
2020-May-28 15:38 247 0 gusting 0 10.6
2020-May-28 15:18 236 0 gusting 1 9.4
2020-May-28 14:58 8.3
2020-May-28 14:38 123 0 gusting 0 8.3
2020-May-28 14:18 7.2
2020-May-28 13:58 7.2
2020-May-28 13:38 7.2
2020-May-28 13:18 6.1
2020-May-28 12:58 5.0
2020-May-28 12:38 4.4
2020-May-28 12:18 063 0 gusting 1 5.0
2020-May-28 11:58 4.4
2020-May-28 11:38 4.4
2020-May-28 11:18 5.0
2020-May-28 10:58 4.4
2020-May-28 10:38 5.0
2020-May-28 10:18 5.0
2020-May-28 09:58 5.6
2020-May-28 09:38 6.1
2020-May-28 09:18 6.7
2020-May-28 08:58 017 0 gusting 0 6.7
2020-May-28 08:38 7.2
2020-May-28 08:18 7.2
2020-May-28 07:58 7.2
2020-May-28 07:38 8.3
2020-May-28 07:18 053 0 gusting 0 8.9
2020-May-28 06:58 8.9
2020-May-28 06:38 014 0 gusting 1 9.4
2020-May-28 06:18 064 0 gusting 1 10.6
2020-May-28 05:58 103 0 gusting 0 10.0
2020-May-28 05:38 043 0 gusting 1 11.1
2020-May-28 05:18 029 0 gusting 1 11.1
2020-May-28 04:58 041 1 gusting 2 12.2
2020-May-28 04:38 019 0 gusting 1 12.8
2020-May-28 04:18 14.4
2020-May-28 03:58 353 0 gusting 0 15.0
2020-May-28 03:38 259 1 gusting 1 15.6
2020-May-28 03:18 327 0 gusting 1 15.6
2020-May-28 02:58 270 0 gusting 1 15.6
2020-May-28 02:38 15.6
2020-May-28 02:18 251 0 gusting 0 15.6
2020-May-28 01:58 284 0 gusting 0 16.1
2020-May-28 01:38 228 1 gusting 2 16.1
2020-May-28 01:18 251 0 gusting 1 16.1
2020-May-28 00:58 296 3 gusting 3 16.7
2020-May-28 00:38 272 0 gusting 2 16.1
2020-May-28 00:18 232 2 gusting 2 16.1
2020-May-27 23:58 293 2 gusting 3 16.7
2020-May-27 23:38 244 2 gusting 2 16.1
2020-May-27 23:18 293 1 gusting 1 16.1
2020-May-27 22:58 284 2 gusting 2 16.1
2020-May-27 22:38 290 0 gusting 1 16.1
2020-May-27 22:18 276 0 gusting 3 16.7
2020-May-27 21:58 200 2 gusting 3 16.1
2020-May-27 21:38 264 1 gusting 4 16.1
2020-May-27 21:18 230 5 gusting 5 16.7
2020-May-27 20:58 245 3 gusting 5 16.7
2020-May-27 20:38 171 3 gusting 4 16.1
2020-May-27 20:18 178 3 gusting 3 16.1
2020-May-27 19:58 192 3 gusting 3 16.1
2020-May-27 19:38 196 5 gusting 5 16.1
2020-May-27 19:18 240 2 gusting 3 15.6
2020-May-27 18:58 263 2 gusting 3 15.0
2020-May-27 18:38 287 0 gusting 1 13.9
2020-May-27 18:18 295 2 gusting 2 12.8
2020-May-27 17:58 270 1 gusting 1 12.8
2020-May-27 17:38 268 0 gusting 0 12.8
2020-May-27 17:18 213 1 gusting 3 12.8
2020-May-27 16:58 11.7
2020-May-27 16:38 072 0 gusting 2 11.1
2020-May-27 16:18 11.7
2020-May-27 15:58 10.6
2020-May-27 15:38 8.9
2020-May-27 15:18 163 1 gusting 1 7.8
2020-May-27 14:58 159 0 gusting 1 7.2
2020-May-27 14:38 6.7
2020-May-27 14:18 7.2
2020-May-27 13:58 6.7
2020-May-27 13:38 4.4
2020-May-27 13:18 117 0 gusting 1 2.8
2020-May-27 12:58 2.8
2020-May-27 12:38 2.8
2020-May-27 12:18 3.3
2020-May-27 11:58 031 1 gusting 1 2.8
2020-May-27 11:38 073 0 gusting 0 3.3
2020-May-27 11:18 3.3
2020-May-27 10:58 3.9
2020-May-27 10:38 064 0 gusting 0 3.9
2020-May-27 10:18 4.4
2020-May-27 09:58 050 1 gusting 1 4.4
2020-May-27 09:38 5.0
2020-May-27 09:18 184 0 gusting 0 5.6
2020-May-27 08:58 012 0 gusting 0 6.1
2020-May-27 08:38 6.7
2020-May-27 08:18 7.2
2020-May-27 07:58 016 0 gusting 1 7.2
2020-May-27 07:38 053 0 gusting 0 7.2
2020-May-27 07:18 032 0 gusting 0 7.2
2020-May-27 06:58 8.3
2020-May-27 06:38 040 0 gusting 0 8.3
2020-May-27 06:18 042 0 gusting 0 8.3
2020-May-27 05:58 8.3
2020-May-27 05:38 041 0 gusting 2 8.9
2020-May-27 05:18 192 1 gusting 2 9.4
2020-May-27 04:58 9.4
2020-May-27 04:38 10.0
2020-May-27 04:18 196 5 gusting 5 10.0
2020-May-27 03:58 203 5 gusting 6 10.0
2020-May-27 03:38 195 6 gusting 8 10.6
2020-May-27 03:18 179 7 gusting 7 10.0